Time;durP1;ratioP1;P1;durP2;ratioP2;P2;SDS_P1;SDS_P2;PMS_P1;PMS_P2;Temp;Humidity;BMP_temperature;BMP_pressure;BME280_temperature;BME280_humidity;BME280_pressure;Samples;Min_cycle;Max_cycle;Signal;HPM_P1;HPM_P2
2021/12/04 00:00:10;;;;;;;29.83;18.90;;;;;;;5.08;24.60;99739.81;4974112;28;20463;-44
2021/12/04 00:02:38;;;;;;;32.40;20.97;;;;;;;5.11;22.69;99739.44;4974983;28;20542;-44
2021/12/04 00:05:08;;;;;;;35.90;24.13;;;;;;;5.13;20.66;99737.44;4975248;28;20438;-43
2021/12/04 00:07:37;;;;;;;34.90;22.57;;;;;;;5.17;19.40;99739.50;4974209;28;20438;-43
2021/12/04 00:10:06;;;;;;;40.73;25.00;;;;;;;5.21;19.58;99740.78;4974025;28;20478;-43
2021/12/04 00:12:34;;;;;;;41.90;24.63;;;;;;;5.27;19.28;99740.03;4973732;28;20486;-45
2021/12/04 00:15:02;;;;;;;37.93;25.03;;;;;;;5.28;19.13;99735.56;4974231;28;20439;-44
2021/12/04 00:17:30;;;;;;;41.60;25.07;;;;;;;5.32;18.82;99736.81;4973984;28;20474;-44
2021/12/04 00:19:58;;;;;;;39.67;26.50;;;;;;;5.36;19.46;99738.09;4973665;28;20467;-43
2021/12/04 00:22:27;;;;;;;44.97;28.23;;;;;;;5.37;20.99;99745.03;4973638;28;20454;-42
2021/12/04 00:24:55;;;;;;;50.23;28.93;;;;;;;5.39;22.36;99743.00;4973778;28;20442;-43
2021/12/04 00:27:22;;;;;;;32.97;24.63;;;;;;;5.40;23.42;99739.34;4973838;28;20434;-43
2021/12/04 00:29:50;;;;;;;50.43;30.43;;;;;;;5.39;24.90;99743.00;4973505;28;20435;-43
2021/12/04 00:32:25;;;;;;;46.93;32.13;;;;;;;5.37;25.70;99732.63;4973584;28;20835;-43
2021/12/04 00:35:01;;;;;;;46.70;30.60;;;;;;;5.36;26.48;99743.38;4973663;28;20437;-45
2021/12/04 00:51:21;;;;;;;52.93;34.00;;;;;;;5.31;27.58;99727.25;4973001;28;20471;-43
2021/12/04 00:53:54;;;;;;;57.83;34.80;;;;;;;5.31;27.28;99732.56;4973045;28;20479;-44
2021/12/04 00:56:21;;;;;;;60.40;34.57;;;;;;;5.32;26.01;99739.47;4973382;28;20961;-43
2021/12/04 00:58:49;;;;;;;59.17;34.57;;;;;;;5.30;25.78;99737.00;4973536;28;20442;-44
2021/12/04 01:01:18;;;;;;;59.87;37.07;;;;;;;5.33;25.29;99738.47;4972875;28;20471;-42
2021/12/04 01:03:46;;;;;;;72.83;36.00;;;;;;;5.33;25.14;99741.94;4973155;28;20819;-43
2021/12/04 01:06:13;;;;;;;61.37;36.77;;;;;;;5.33;25.74;99739.28;4973136;28;20448;-43
2021/12/04 01:08:41;;;;;;;53.27;35.03;;;;;;;5.35;25.19;99741.72;4973401;28;20440;-44
2021/12/04 01:11:10;;;;;;;57.77;34.30;;;;;;;5.33;25.85;99741.09;4972716;28;20482;-43
2021/12/04 01:13:38;;;;;;;61.53;33.30;;;;;;;5.34;25.58;99748.88;4972826;28;20480;-43
2021/12/04 01:16:06;;;;;;;48.07;32.83;;;;;;;5.35;25.37;99733.78;4973228;28;20442;-43
2021/12/04 01:18:33;;;;;;;47.67;32.20;;;;;;;5.30;26.28;99733.53;4973103;28;20449;-44
2021/12/04 01:21:01;;;;;;;49.13;32.63;;;;;;;5.32;26.01;99742.09;4972453;28;20481;-43
2021/12/04 01:23:29;;;;;;;45.07;32.00;;;;;;;5.31;25.61;99740.47;4973029;28;20458;-43
2021/12/04 01:25:56;;;;;;;58.63;35.53;;;;;;;5.29;26.24;99743.28;4972948;28;20447;-43
2021/12/04 01:28:25;;;;;;;55.43;34.67;;;;;;;5.29;26.18;99739.81;4973065;28;20439;-42
2021/12/04 01:30:54;;;;;;;49.53;33.63;;;;;;;5.27;26.70;99737.38;4972570;28;20477;-43
2021/12/04 01:33:22;;;;;;;48.43;32.47;;;;;;;5.27;27.03;99744.50;4972671;28;20482;-48
2021/12/04 01:35:49;;;;;;;52.63;34.80;;;;;;;5.26;27.24;99742.84;4972896;28;20951;-43
2021/12/04 01:38:17;;;;;;;44.97;32.97;;;;;;;5.25;27.59;99746.50;4972967;28;20466;-44
2021/12/04 01:40:45;;;;;;;54.10;34.77;;;;;;;5.24;27.70;99745.69;4973492;28;20465;-43
2021/12/04 01:43:12;;;;;;;45.23;31.80;;;;;;;5.26;28.08;99751.59;4976743;28;20434;-45
2021/12/04 01:45:41;;;;;;;52.33;32.00;;;;;;;5.22;28.85;99746.88;4976828;28;20979;-43
2021/12/04 01:48:09;;;;;;;60.83;34.13;;;;;;;5.20;29.56;99748.88;4977051;28;20449;-45
2021/12/04 01:50:37;;;;;;;47.07;30.70;;;;;;;5.21;29.75;99754.00;4976195;28;20465;-43
2021/12/04 01:53:05;;;;;;;51.07;32.47;;;;;;;5.19;30.08;99755.19;4977039;28;20488;-44
2021/12/04 01:55:35;;;;;;;48.40;33.00;;;;;;;5.19;29.94;99761.28;4976718;28;20448;-46
2021/12/04 01:58:05;;;;;;;52.87;31.30;;;;;;;5.18;29.79;99764.09;4976712;28;20435;-48
2021/12/04 02:00:35;;;;;;;49.70;33.57;;;;;;;5.15;30.67;99759.19;4976170;28;20458;-44
2021/12/04 02:03:07;;;;;;;51.63;33.90;;;;;;;5.13;30.35;99763.84;4976524;28;20800;-43
2021/12/04 02:05:37;;;;;;;57.50;33.83;;;;;;;5.11;29.91;99764.03;4976617;28;20450;-44
2021/12/04 02:08:06;;;;;;;54.73;34.70;;;;;;;5.09;29.49;99763.41;4976613;28;20434;-45
2021/12/04 02:10:34;;;;;;;59.23;34.73;;;;;;;5.11;29.24;99771.16;4976042;28;20489;-43
2021/12/04 02:13:02;;;;;;;61.03;36.63;;;;;;;5.11;29.27;99760.59;4975939;28;20829;-44
2021/12/04 02:15:30;;;;;;;58.43;35.80;;;;;;;5.11;29.12;99773.81;4976520;28;20818;-43
2021/12/04 02:17:59;;;;;;;62.70;35.20;;;;;;;5.13;28.75;99763.84;4976387;28;20435;-44
2021/12/04 02:20:31;;;;;;;53.13;34.67;;;;;;;5.14;28.85;99765.50;4975923;28;20458;-45
2021/12/04 02:22:59;;;;;;;64.23;38.30;;;;;;;5.13;28.86;99769.13;4976039;28;20431;-43
2021/12/04 02:25:27;;;;;;;64.07;34.50;;;;;;;5.11;29.35;99771.16;4976077;28;20489;-43
2021/12/04 02:27:54;;;;;;;83.03;39.70;;;;;;;5.11;29.07;99777.25;4976007;28;20523;-44
2021/12/04 02:30:25;;;;;;;62.50;34.70;;;;;;;5.12;29.17;99778.06;4975741;28;20458;-45
2021/12/04 02:32:54;;;;;;;59.03;37.07;;;;;;;5.10;29.80;99770.34;4975767;28;20458;-43
2021/12/04 02:35:22;;;;;;;54.93;36.10;;;;;;;5.10;29.79;99758.94;4976337;28;20439;-47
2021/12/04 02:37:52;;;;;;;65.07;36.47;;;;;;;5.05;29.11;99770.03;4975868;28;20449;-43
2021/12/04 02:40:21;;;;;;;66.97;37.70;;;;;;;5.07;29.40;99761.94;4975629;28;20462;-42
2021/12/04 02:42:50;;;;;;;77.83;37.93;;;;;;;5.07;30.01;99768.06;4976809;28;20458;-45
2021/12/04 02:45:17;;;;;;;69.03;37.67;;;;;;;5.07;30.32;99764.59;4976301;28;20466;-43
2021/12/04 02:47:45;;;;;;;64.63;37.00;;;;;;;5.07;30.87;99769.88;4975770;28;20804;-43
2021/12/04 02:50:16;;;;;;;76.13;35.93;;;;;;;5.00;31.26;99769.78;4975223;28;20512;-44
2021/12/04 02:52:44;;;;;;;53.63;32.90;;;;;;;4.97;31.53;99763.06;4974044;28;21055;-43
2021/12/04 02:55:15;;;;;;;51.00;31.10;;;;;;;4.91;32.32;99753.22;4975635;28;20490;-45
2021/12/04 02:57:44;;;;;;;42.70;29.30;;;;;;;4.90;31.54;99761.31;4975711;28;20434;-43
2021/12/04 03:00:16;;;;;;;42.40;27.20;;;;;;;4.92;31.78;99761.97;4975157;28;20466;-45
2021/12/04 03:02:44;;;;;;;46.30;28.27;;;;;;;4.88;31.64;99755.41;4975114;28;20460;-43
2021/12/04 03:05:12;;;;;;;48.47;27.83;;;;;;;4.89;30.70;99757.06;4975305;28;20449;-43
2021/12/04 03:07:41;;;;;;;50.27;29.30;;;;;;;4.90;30.07;99756.84;4975473;28;20439;-43
2021/12/04 03:10:09;;;;;;;48.87;27.87;;;;;;;4.87;30.53;99749.31;4974868;28;20459;-44
2021/12/04 03:12:40;;;;;;;44.47;27.80;;;;;;;4.91;29.66;99753.22;4974961;28;20459;-43
2021/12/04 03:15:09;;;;;;;48.50;29.60;;;;;;;4.90;30.84;99746.28;4975190;28;21228;-43
2021/12/04 03:17:37;;;;;;;53.63;30.63;;;;;;;4.90;30.84;99750.75;4975048;28;20438;-44
2021/12/04 03:20:06;;;;;;;55.03;30.97;;;;;;;4.91;30.24;99744.47;4974932;28;20467;-43
2021/12/04 03:22:34;;;;;;;52.07;28.93;;;;;;;4.91;30.93;99747.13;4975005;28;20450;-43
2021/12/04 03:25:01;;;;;;;52.53;29.13;;;;;;;4.92;30.54;99751.41;4975172;28;20438;-43
2021/12/04 03:27:31;;;;;;;47.70;29.90;;;;;;;4.88;30.01;99743.03;4975065;28;20537;-44
2021/12/04 03:30:04;;;;;;;53.77;30.10;;;;;;;4.90;30.91;99745.47;4974530;28;20458;-43
2021/12/04 03:40:02;;;;;;;61.83;31.80;;;;;;;4.92;31.50;99740.84;4969928;28;20490;-43
2021/12/04 03:41:02;;;;;;;66.27;34.80;;;;;;;4.92;31.79;99751.41;4974156;28;20817;-44
2021/12/04 03:43:31;;;;;;;69.53;36.47;;;;;;;4.92;32.29;99756.69;4974601;28;20435;-43
2021/12/04 03:46:01;;;;;;;64.00;32.47;;;;;;;4.94;32.15;99754.69;4974627;28;20452;-43
2021/12/04 03:48:50;;;;;;;56.10;32.13;;;;;;;4.96;32.99;99761.41;4974737;28;20808;-43
2021/12/04 03:51:19;;;;;;;75.73;35.37;;;;;;;4.91;34.01;99761.16;4974140;28;20482;-44
2021/12/04 03:53:46;;;;;;;56.07;32.43;;;;;;;4.94;33.84;99766.06;4974344;28;20441;-44
2021/12/04 03:56:16;;;;;;;64.07;33.10;;;;;;;4.91;34.27;99766.44;4974547;28;20439;-43
2021/12/04 03:58:43;;;;;;;61.10;31.90;;;;;;;4.93;35.58;99776.81;4974488;28;20441;-46
2021/12/04 04:01:12;;;;;;;59.23;31.10;;;;;;;4.92;35.95;99778.66;4973827;28;20474;-43
2021/12/04 04:03:40;;;;;;;62.70;31.07;;;;;;;4.92;36.13;99769.91;4973754;28;20439;-43
2021/12/04 04:06:07;;;;;;;59.60;31.20;;;;;;;4.92;36.69;99767.25;4974467;28;20809;-43
2021/12/04 04:08:35;;;;;;;55.90;31.77;;;;;;;4.92;36.15;99770.72;4974346;28;20812;-43
2021/12/04 04:11:03;;;;;;;67.60;31.27;;;;;;;4.92;37.39;99772.53;4973725;28;20470;-43
2021/12/04 04:13:30;;;;;;;63.53;31.80;;;;;;;4.88;37.83;99766.81;4973949;28;20442;-43
2021/12/04 04:16:00;;;;;;;56.67;31.63;;;;;;;4.86;37.45;99768.81;4973880;28;20482;-44
2021/12/04 04:18:31;;;;;;;63.50;29.53;;;;;;;4.88;36.91;99760.69;4974246;28;20439;-45
2021/12/04 04:21:00;;;;;;;57.33;31.37;;;;;;;4.86;37.02;99762.72;4973537;28;21011;-43
2021/12/04 04:23:28;;;;;;;68.93;32.87;;;;;;;4.86;37.40;99765.34;4973946;28;20438;-43
2021/12/04 04:25:55;;;;;;;66.90;33.63;;;;;;;4.87;36.61;99773.06;4974089;28;20527;-43
2021/12/04 04:28:23;;;;;;;66.33;33.07;;;;;;;4.86;36.99;99779.38;4973802;28;20434;-44
2021/12/04 04:30:52;;;;;;;63.20;33.57;;;;;;;4.88;36.85;99772.09;4973354;28;20492;-47
2021/12/04 04:33:19;;;;;;;67.20;35.80;;;;;;;4.84;37.12;99778.72;4973677;28;20492;-43
2021/12/04 04:36:00;;;;;;;73.37;35.57;;;;;;;4.84;36.96;99778.72;4973742;28;20485;-45
2021/12/04 04:38:36;;;;;;;66.53;36.67;;;;;;;4.86;36.53;99776.75;4973745;28;20543;-44
2021/12/04 04:58:00;;;;;;;87.23;36.03;;;;;;;4.80;36.20;99779.28;4973339;28;20441;-45
2021/12/04 05:11:39;;;;;;;79.37;33.97;;;;;;;4.80;37.01;99779.28;4972820;28;20466;-43
2021/12/04 05:14:07;;;;;;;103.40;40.13;;;;;;;4.82;36.76;99782.56;4972920;28;20434;-43
2021/12/04 05:16:49;;;;;;;76.60;36.53;;;;;;;4.83;36.55;99782.38;4972737;28;20448;-45
2021/12/04 05:19:37;;;;;;;91.60;39.47;;;;;;;4.84;37.66;99780.53;4970565;28;20434;-44
2021/12/04 05:22:06;;;;;;;74.10;36.50;;;;;;;4.79;38.33;99781.09;4973007;28;20461;-44
2021/12/04 05:24:35;;;;;;;72.40;36.97;;;;;;;4.80;37.98;99787.22;4973379;28;20439;-43
2021/12/04 05:27:03;;;;;;;98.73;37.90;;;;;;;4.78;38.07;99786.59;4972920;28;20435;-44
2021/12/04 05:29:31;;;;;;;90.93;38.37;;;;;;;4.77;37.10;99784.94;4969684;28;20442;-43
2021/12/04 05:31:59;;;;;;;82.43;36.57;;;;;;;4.78;36.70;99792.66;4972082;28;20475;-44
2021/12/04 05:34:26;;;;;;;71.50;38.60;;;;;;;4.79;37.02;99786.38;4972519;28;20497;-44
2021/12/04 05:36:54;;;;;;;85.00;39.97;;;;;;;4.78;37.20;99787.38;4961489;28;20833;-45
2021/12/04 05:39:22;;;;;;;93.50;39.97;;;;;;;4.80;37.07;99790.69;4971598;28;20423;-44
2021/12/04 05:41:52;;;;;;;101.40;41.77;;;;;;;4.79;37.24;99799.59;4971065;28;20462;-44
2021/12/04 05:44:23;;;;;;;98.90;39.30;;;;;;;4.78;37.33;99795.31;4971340;28;20465;-46
2021/12/04 05:46:54;;;;;;;118.23;42.27;;;;;;;4.78;38.52;99797.94;4971331;28;20933;-44
2021/12/04 05:49:26;;;;;;;135.53;41.80;;;;;;;4.79;37.88;99788.19;4970974;28;20518;-45
2021/12/04 05:54:56;;;;;;;91.43;35.93;;;;;;;4.81;38.40;99792.28;4958774;28;20972;-45
2021/12/04 05:57:25;;;;;;;84.97;35.37;;;;;;;4.71;40.70;99793.59;4956616;28;20431;-44
2021/12/04 05:59:52;;;;;;;78.90;34.50;;;;;;;4.72;40.92;99792.59;4970812;28;20581;-45
2021/12/04 06:02:21;;;;;;;81.53;34.00;;;;;;;4.77;38.92;99795.50;4971410;28;20461;-44
2021/12/04 06:04:48;;;;;;;85.07;35.33;;;;;;;4.75;40.02;99795.66;4943587;28;20576;-45
2021/12/04 06:07:16;;;;;;;87.77;37.37;;;;;;;4.74;40.17;99795.88;4967107;28;20971;-45
2021/12/04 06:09:44;;;;;;;87.47;34.30;;;;;;;4.74;40.14;99801.16;4971350;28;20535;-45
2021/12/04 06:12:11;;;;;;;68.40;32.20;;;;;;;4.78;39.63;99799.78;4971495;28;20472;-45
2021/12/04 06:14:45;;;;;;;75.97;32.73;;;;;;;4.76;40.64;99794.69;4970482;28;20438;-45
2021/12/04 06:17:13;;;;;;;80.73;31.77;;;;;;;4.74;40.93;99788.75;4960818;28;20435;-45
2021/12/04 06:22:38;;;;;;;92.97;37.80;;;;;;;4.77;39.35;99793.69;4969769;28;20469;-43
2021/12/04 06:25:07;;;;;;;57.87;31.70;;;;;;;4.74;40.70;99799.31;4970786;28;20497;-46
2021/12/04 06:27:35;;;;;;;66.87;33.93;;;;;;;4.76;39.67;99804.41;4972546;28;20443;-43
2021/12/04 06:30:04;;;;;;;83.63;34.50;;;;;;;4.73;41.01;99805.59;4974609;28;20452;-45
2021/12/04 06:32:34;;;;;;;65.73;31.03;;;;;;;4.72;40.53;99805.81;4974375;28;20454;-44
2021/12/04 06:35:02;;;;;;;69.77;31.60;;;;;;;4.73;41.63;99807.41;4974021;28;20463;-44
2021/12/04 06:37:30;;;;;;;58.63;29.57;;;;;;;4.70;41.54;99800.69;4972251;28;20436;-44
2021/12/04 06:39:59;;;;;;;46.20;26.40;;;;;;;4.66;42.63;99799.41;4974858;28;20441;-45
2021/12/04 06:42:27;;;;;;;59.60;27.87;;;;;;;4.66;41.38;99801.25;4974195;28;20447;-44
2021/12/04 06:44:56;;;;;;;52.13;27.10;;;;;;;4.68;40.78;99807.16;4973755;28;20434;-44
2021/12/04 06:47:25;;;;;;;63.57;29.43;;;;;;;4.71;40.69;99801.50;4973871;28;20434;-44
2021/12/04 06:49:58;;;;;;;44.67;26.50;;;;;;;4.70;41.97;99799.84;4974097;28;20812;-45
2021/12/04 06:52:27;;;;;;;55.67;29.07;;;;;;;4.72;41.61;99805.81;4974153;28;20525;-45
2021/12/04 06:54:57;;;;;;;43.77;25.53;;;;;;;4.73;41.97;99810.06;4973982;28;20434;-43
2021/12/04 06:57:25;;;;;;;46.83;25.27;;;;;;;4.69;44.01;99800.88;4974380;28;20449;-44
2021/12/04 06:59:55;;;;;;;61.03;30.30;;;;;;;4.72;42.13;99813.72;4972140;28;20438;-45
2021/12/04 07:02:22;;;;;;;41.33;24.90;;;;;;;4.71;43.27;99814.72;4973770;28;20457;-45
2021/12/04 07:04:52;;;;;;;47.23;25.37;;;;;;;4.70;43.96;99816.53;4973758;28;20812;-45
2021/12/04 07:07:19;;;;;;;58.53;28.03;;;;;;;4.73;42.82;99821.44;4973521;28;20779;-43
2021/12/04 07:09:47;;;;;;;58.87;26.43;;;;;;;4.69;44.38;99816.72;4973953;28;20450;-43
2021/12/04 07:12:14;;;;;;;52.20;25.63;;;;;;;4.71;44.52;99820.81;4973870;28;20801;-45
2021/12/04 07:14:42;;;;;;;66.23;30.17;;;;;;;4.73;43.76;99818.81;4973218;28;20435;-44
2021/12/04 07:17:10;;;;;;;50.80;27.17;;;;;;;4.71;45.25;99823.47;4972439;28;20474;-47
2021/12/04 07:19:38;;;;;;;55.80;28.90;;;;;;;4.75;44.20;99824.72;4974103;28;20445;-45
2021/12/04 07:22:08;;;;;;;67.43;29.93;;;;;;;4.75;44.26;99823.94;4971835;28;20456;-44
2021/12/04 07:24:35;;;;;;;68.20;30.80;;;;;;;4.70;46.35;99826.28;4973810;28;20887;-43
2021/12/04 07:27:05;;;;;;;69.87;31.50;;;;;;;4.74;45.85;99825.75;4972911;28;20443;-44
2021/12/04 07:29:33;;;;;;;70.33;32.13;;;;;;;4.74;45.64;99827.56;4973806;28;20437;-47
2021/12/04 07:32:00;;;;;;;79.27;33.60;;;;;;;4.76;45.21;99831.66;4973148;28;20490;-44
2021/12/04 07:34:28;;;;;;;67.73;29.40;;;;;;;4.77;46.44;99840.41;4973431;28;20442;-45
2021/12/04 07:36:55;;;;;;;76.43;28.93;;;;;;;4.80;45.40;99840.03;4960961;28;20488;-44
2021/12/04 07:39:24;;;;;;;77.77;31.40;;;;;;;4.78;47.37;99831.47;4972559;28;20444;-44
2021/12/04 07:41:52;;;;;;;82.50;31.70;;;;;;;4.76;47.31;99834.28;4973511;28;20462;-46
2021/12/04 07:44:20;;;;;;;78.00;29.87;;;;;;;4.78;47.15;99834.13;4972882;28;20446;-44
2021/12/04 07:46:47;;;;;;;51.17;27.27;;;;;;;4.77;47.53;99845.69;4972384;28;20463;-44
2021/12/04 07:49:15;;;;;;;48.10;27.10;;;;;;;4.76;47.50;99841.38;4971585;28;21013;-46
2021/12/04 07:51:44;;;;;;;44.03;26.03;;;;;;;4.78;46.86;99840.19;4973197;28;20466;-45
2021/12/04 07:54:13;;;;;;;64.13;27.70;;;;;;;4.80;45.40;99840.88;4972891;28;20526;-47
2021/12/04 07:56:42;;;;;;;57.00;27.10;;;;;;;4.81;46.89;99831.09;4971867;28;20483;-43
2021/12/04 07:59:09;;;;;;;60.20;24.63;;;;;;;4.84;46.61;99828.91;4972884;28;20447;-47
2021/12/04 08:01:37;;;;;;;42.30;23.03;;;;;;;4.85;47.44;99827.91;4972863;28;21000;-42
2021/12/04 08:04:05;;;;;;;39.80;21.50;;;;;;;4.86;48.07;99831.38;4973922;28;20439;-43
2021/12/04 08:06:35;;;;;;;35.97;21.57;;;;;;;4.86;48.59;99826.94;4972698;28;20463;-45
2021/12/04 08:09:03;;;;;;;27.27;17.87;;;;;;;4.88;48.64;99827.56;4972943;28;20442;-43
2021/12/04 08:11:31;;;;;;;29.37;19.30;;;;;;;4.89;49.03;99829.22;4972583;28;20470;-45
2021/12/04 08:14:00;;;;;;;31.57;19.17;;;;;;;4.93;49.05;99832.28;4972704;28;20464;-44
2021/12/04 08:16:28;;;;;;;28.00;18.97;;;;;;;4.97;49.30;99829.09;4971378;28;20496;-44
2021/12/04 08:18:56;;;;;;;31.60;18.80;;;;;;;4.97;51.46;99817.72;4972750;28;20431;-44
2021/12/04 08:21:23;;;;;;;37.40;20.67;;;;;;;5.00;51.91;99827.91;4972228;28;20473;-43
2021/12/04 08:23:51;;;;;;;31.10;19.03;;;;;;;5.03;51.98;99830.19;4972465;28;20802;-43
2021/12/04 08:26:19;;;;;;;31.77;20.10;;;;;;;5.06;53.21;99831.66;4971900;28;20462;-44
2021/12/04 08:28:48;;;;;;;36.77;20.30;;;;;;;5.05;53.78;99828.19;4971944;28;20439;-44
2021/12/04 08:31:17;;;;;;;34.77;19.07;;;;;;;5.06;55.37;99823.72;4972265;28;20458;-44
2021/12/04 08:33:45;;;;;;;33.00;18.67;;;;;;;5.02;58.02;99824.09;4972227;28;20442;-43
2021/12/04 08:36:12;;;;;;;30.10;19.03;;;;;;;5.05;58.59;99824.75;4971798;28;20470;-45
2021/12/04 08:38:46;;;;;;;38.87;20.40;;;;;;;5.07;58.04;99834.13;4972018;28;20809;-43
2021/12/04 08:41:14;;;;;;;39.17;20.37;;;;;;;5.09;58.69;99836.56;4972341;28;20667;-44
2021/12/04 08:43:41;;;;;;;40.90;20.77;;;;;;;5.04;60.68;99826.56;4971380;28;21150;-43
2021/12/04 08:46:10;;;;;;;32.43;20.57;;;;;;;5.07;62.61;99825.38;4971579;28;20880;-45
2021/12/04 08:48:39;;;;;;;35.07;19.97;;;;;;;5.04;62.57;99818.63;4971761;28;20469;-45
2021/12/04 08:51:07;;;;;;;32.57;20.80;;;;;;;5.03;64.13;99827.56;4971244;28;20844;-43
2021/12/04 08:53:36;;;;;;;34.43;19.90;;;;;;;5.06;63.17;99829.00;4972037;28;20801;-43
2021/12/04 08:56:04;;;;;;;34.93;20.20;;;;;;;5.07;63.79;99828.84;4971340;28;20870;-43
2021/12/04 08:58:32;;;;;;;35.83;19.60;;;;;;;5.07;64.76;99834.13;4940574;28;20471;-44
2021/12/04 09:01:03;;;;;;;32.07;19.83;;;;;;;5.09;63.47;99829.47;4972026;28;20466;-47
2021/12/04 09:03:33;;;;;;;35.13;20.60;;;;;;;5.08;65.07;99825.16;4971842;28;20876;-43
2021/12/04 09:06:05;;;;;;;33.70;19.93;;;;;;;5.01;66.59;99824.28;4972151;28;20433;-43
2021/12/04 09:08:33;;;;;;;37.10;21.30;;;;;;;4.99;67.28;99818.34;4971552;28;20833;-43
2021/12/04 09:11:05;;;;;;;30.63;18.73;;;;;;;5.01;65.93;99822.47;4971761;28;20451;-44
2021/12/04 09:13:33;;;;;;;31.20;20.10;;;;;;;4.98;67.23;99819.38;4971352;28;20442;-45
2021/12/04 09:16:02;;;;;;;39.03;22.90;;;;;;;4.99;66.25;99821.81;4971760;28;20446;-44
2021/12/04 09:18:30;;;;;;;44.07;23.70;;;;;;;5.01;66.12;99816.34;4970726;28;20470;-48
2021/12/04 09:20:58;;;;;;;33.20;19.07;;;;;;;5.08;63.64;99822.53;4971771;28;20470;-48
2021/12/04 09:23:32;;;;;;;42.00;22.30;;;;;;;5.11;63.81;99814.22;4971446;28;20427;-45
2021/12/04 09:26:02;;;;;;;31.97;20.23;;;;;;;5.15;64.93;99825.25;4971594;28;20437;-44
2021/12/04 09:28:40;;;;;;;40.03;21.20;;;;;;;5.18;65.93;99830.19;4969947;28;20467;-43
2021/12/04 09:31:37;;;;;;;27.93;18.20;;;;;;;5.17;68.50;99824.06;4971596;28;20461;-44
2021/12/04 09:34:35;;;;;;;26.90;18.47;;;;;;;5.15;69.65;99819.97;4966221;28;20442;-43
2021/12/04 10:02:03;;;;;;;34.77;19.53;;;;;;;5.16;74.19;99805.78;4972527;28;20465;-44
2021/12/04 10:16:00;;;;;;;29.43;18.83;;;;;;;5.21;76.71;99796.28;4954672;28;20461;-44
2021/12/04 10:24:35;;;;;;;28.40;16.70;;;;;;;5.13;80.38;99798.22;4972129;28;20978;-44
2021/12/04 10:32:37;;;;;;;23.37;16.83;;;;;;;5.16;80.03;99803.94;4974399;28;20462;-43
2021/12/04 10:35:10;;;;;;;23.83;15.97;;;;;;;5.20;78.56;99801.72;4974964;28;20434;-47
2021/12/04 10:37:49;;;;;;;27.87;17.30;;;;;;;5.17;80.24;99800.28;4973645;28;20474;-47
2021/12/04 10:40:19;;;;;;;28.80;18.40;;;;;;;5.19;79.20;99798.31;4970217;28;21058;-45
2021/12/04 10:42:53;;;;;;;24.90;15.80;;;;;;;5.18;80.41;99788.72;4975120;28;20998;-47
2021/12/04 10:45:32;;;;;;;19.40;14.73;;;;;;;5.14;80.69;99789.28;4974381;28;20446;-47
2021/12/04 10:48:05;;;;;;;21.73;14.93;;;;;;;5.09;81.94;99789.00;4971663;28;20458;-45
2021/12/04 10:50:41;;;;;;;23.27;16.90;;;;;;;5.05;81.63;99788.53;4973356;28;20535;-44
2021/12/04 10:53:13;;;;;;;28.97;18.67;;;;;;;5.07;79.98;99791.03;4973902;28;20442;-44
2021/12/04 10:55:48;;;;;;;30.83;19.17;;;;;;;5.02;80.51;99797.66;4973763;28;20542;-44
2021/12/04 10:58:49;;;;;;;23.90;15.67;;;;;;;5.03;78.72;99799.31;4972805;28;20470;-44
2021/12/04 11:01:30;;;;;;;27.37;16.87;;;;;;;5.01;78.20;99785.47;4973798;28;20467;-45
2021/12/04 11:04:05;;;;;;;24.87;16.70;;;;;;;5.02;77.68;99787.09;4961509;28;20567;-45
2021/12/04 11:34:55;;;;;;;24.33;17.00;;;;;;;4.91;79.82;99768.25;4972926;28;20491;-45
2021/12/04 11:40:50;;;;;;;22.33;14.87;;;;;;;4.96;78.94;99764.03;4971463;28;20435;-44
2021/12/04 11:43:22;;;;;;;24.43;16.47;;;;;;;4.99;80.60;99762.84;4970620;28;20431;-44
2021/12/04 11:46:02;;;;;;;21.30;15.17;;;;;;;5.01;79.97;99759.06;4973022;28;20462;-46
2021/12/04 11:48:31;;;;;;;26.33;16.57;;;;;;;5.07;80.06;99751.38;4972465;28;20537;-48
2021/12/04 11:51:01;;;;;;;27.10;15.97;;;;;;;5.10;79.96;99751.84;4963303;28;20477;-46
2021/12/04 11:53:32;;;;;;;23.37;16.30;;;;;;;5.16;80.85;99748.44;4969702;28;20457;-46
2021/12/04 11:56:01;;;;;;;23.83;16.30;;;;;;;5.20;81.03;99743.59;4972925;28;20431;-47
2021/12/04 11:58:31;;;;;;;31.43;17.93;;;;;;;5.22;81.63;99741.59;4971777;28;20482;-44
2021/12/04 12:01:02;;;;;;;23.23;16.63;;;;;;;5.25;81.84;99747.34;4972962;28;20465;-43
2021/12/04 12:03:32;;;;;;;29.50;19.50;;;;;;;5.29;81.44;99739.81;4966443;28;20501;-43
2021/12/04 12:06:04;;;;;;;26.03;16.20;;;;;;;5.34;81.16;99750.69;4972544;28;20445;-43
2021/12/04 12:08:34;;;;;;;31.23;19.50;;;;;;;5.33;81.77;99749.84;4971219;28;20548;-44
2021/12/04 12:11:05;;;;;;;22.63;17.07;;;;;;;5.24;85.36;99743.03;4968439;28;20454;-43
2021/12/04 12:13:35;;;;;;;35.53;20.37;;;;;;;5.25;85.56;99749.97;4972560;28;20522;-44
2021/12/04 12:16:10;;;;;;;30.60;18.60;;;;;;;5.25;84.23;99749.16;4972824;28;20443;-43
2021/12/04 12:18:52;;;;;;;36.20;20.10;;;;;;;5.20;85.33;99747.06;4971648;28;20486;-44
2021/12/04 12:21:25;;;;;;;31.90;20.47;;;;;;;5.20;85.12;99751.53;4964947;28;20472;-44
2021/12/04 12:27:00;;;;;;;31.00;19.50;;;;;;;5.21;84.62;99756.63;4972284;28;20445;-44
2021/12/04 12:32:44;;;;;;;33.90;20.37;;;;;;;5.17;85.21;99758.00;4972154;28;21264;-44
2021/12/04 12:38:11;;;;;;;39.50;21.20;;;;;;;5.11;84.30;99757.94;4970433;28;20486;-44
2021/12/04 12:40:58;;;;;;;31.60;21.83;;;;;;;5.11;84.07;99744.72;4971605;28;20867;-46
2021/12/04 12:43:37;;;;;;;31.73;20.40;;;;;;;5.13;83.14;99746.19;4971325;28;20442;-44
2021/12/04 12:46:05;;;;;;;38.87;23.03;;;;;;;5.15;83.50;99741.53;4971075;28;20435;-46
2021/12/04 12:48:42;;;;;;;35.07;23.17;;;;;;;5.13;84.13;99743.53;4971272;28;20480;-43
2021/12/04 12:51:10;;;;;;;32.07;22.00;;;;;;;5.15;83.80;99748.63;4972054;28;20463;-44
2021/12/04 12:53:44;;;;;;;38.80;24.13;;;;;;;5.15;83.35;99748.63;4970956;28;20446;-43
2021/12/04 12:56:14;;;;;;;33.73;21.80;;;;;;;5.07;83.88;99752.22;4972102;28;20443;-45
2021/12/04 12:58:46;;;;;;;31.00;22.30;;;;;;;5.10;82.97;99751.84;4970895;28;20483;-47
2021/12/04 13:12:47;;;;;;;28.97;19.77;;;;;;;4.91;83.28;99736.56;4971432;28;20462;-46
2021/12/04 13:15:17;;;;;;;35.60;20.20;;;;;;;4.91;82.31;99728.63;4971712;28;20435;-46
2021/12/04 13:17:45;;;;;;;26.90;19.30;;;;;;;4.87;82.05;99733.44;4970526;28;20477;-45
2021/12/04 13:20:13;;;;;;;32.07;21.93;;;;;;;4.87;81.89;99728.16;4971527;28;20482;-48
2021/12/04 13:22:40;;;;;;;34.90;21.57;;;;;;;4.80;82.58;99732.56;4971099;28;20466;-46
2021/12/04 13:25:11;;;;;;;32.33;20.87;;;;;;;4.77;81.46;99732.94;4970357;28;20431;-45
2021/12/04 13:30:10;;;;;;;30.70;22.80;;;;;;;4.76;80.39;99726.00;4971588;28;20434;-50
2021/12/04 13:32:39;;;;;;;39.00;24.23;;;;;;;4.75;79.21;99724.34;4971388;28;20467;-46
2021/12/04 13:35:10;;;;;;;29.17;21.47;;;;;;;4.74;79.63;99716.63;4971656;28;20434;-44
2021/12/04 13:37:40;;;;;;;35.73;23.67;;;;;;;4.73;79.31;99721.09;4975433;28;20472;-46
2021/12/04 13:40:13;;;;;;;37.23;22.97;;;;;;;4.73;78.79;99707.88;4977956;28;20507;-45
2021/12/04 13:42:42;;;;;;;37.20;21.13;;;;;;;4.80;77.83;99705.34;4977583;28;20461;-45
2021/12/04 13:45:12;;;;;;;30.77;22.00;;;;;;;4.81;78.24;99706.94;4978246;28;20442;-44
2021/12/04 13:47:43;;;;;;;30.60;21.73;;;;;;;4.80;79.31;99703.50;4976600;28;20594;-45
2021/12/04 13:52:57;;;;;;;37.30;23.50;;;;;;;4.78;79.47;99707.34;4977243;28;20458;-44
2021/12/04 13:55:27;;;;;;;44.43;28.10;;;;;;;4.76;79.59;99691.66;4978112;28;20434;-45
2021/12/04 13:57:57;;;;;;;30.43;20.10;;;;;;;4.72;79.98;99697.53;4976942;28;20462;-46
2021/12/04 14:00:26;;;;;;;35.43;20.67;;;;;;;4.69;79.69;99690.75;4977696;28;20478;-44
2021/12/04 14:02:53;;;;;;;28.50;20.30;;;;;;;4.71;78.80;99690.59;4976298;28;20512;-45
2021/12/04 14:05:23;;;;;;;30.37;21.87;;;;;;;4.75;77.83;99700.59;4961712;28;20436;-44
2021/12/04 14:07:54;;;;;;;33.00;20.00;;;;;;;4.69;79.13;99700.53;4976567;28;21090;-45
2021/12/04 14:10:25;;;;;;;29.43;20.30;;;;;;;4.68;79.16;99702.34;4978062;28;20477;-46
2021/12/04 14:12:55;;;;;;;33.13;23.70;;;;;;;4.68;77.99;99702.34;4977327;28;20469;-45
2021/12/04 14:15:24;;;;;;;31.00;22.83;;;;;;;4.70;78.92;99707.44;4977840;28;20937;-45